createdAt,value
2022-11-27T00:02:13.943Z,98313.34
2022-11-27T00:05:15.763Z,98309.06
2022-11-27T00:08:17.242Z,98297.06
2022-11-27T00:11:24.216Z,98292.94
2022-11-27T00:14:25.827Z,98282.00
2022-11-27T00:17:27.350Z,98274.34
2022-11-27T00:20:29.953Z,98274.44
2022-11-27T00:23:32.834Z,98276.31
2022-11-27T00:26:38.147Z,98267.66
2022-11-27T00:29:40.076Z,98265.06
2022-11-27T00:32:41.648Z,98264.31
2022-11-27T00:35:43.277Z,98250.81
2022-11-27T00:38:44.837Z,98251.84
2022-11-27T00:41:46.372Z,98244.22
2022-11-27T00:44:47.857Z,98240.66
2022-11-27T00:47:49.386Z,98238.06
2022-11-27T00:50:50.855Z,98242.53
2022-11-27T00:53:52.703Z,98239.25
2022-11-27T00:56:54.281Z,98241.78
2022-11-27T00:59:55.774Z,98245.97
2022-11-27T01:02:57.291Z,98244.47
2022-11-27T01:06:05.255Z,98244.75
2022-11-27T01:09:07.557Z,98245.50
2022-11-27T01:12:09.229Z,98258.78
2022-11-27T01:15:11.187Z,98251.91
2022-11-27T01:18:12.706Z,98236.38
2022-11-27T01:21:16.324Z,98228.75
2022-11-27T01:24:18.120Z,98236.75
2022-11-27T01:27:19.880Z,98212.84
2022-11-27T01:30:21.424Z,98218.88
2022-11-27T01:33:23.088Z,98214.97
2022-11-27T01:36:25.522Z,98208.34
2022-11-27T01:39:26.995Z,98205.84
2022-11-27T01:42:28.534Z,98208.66
2022-11-27T01:45:30.210Z,98213.66
2022-11-27T01:48:32.052Z,98210.31
2022-11-27T01:51:33.716Z,98204.19
2022-11-27T01:54:48.560Z,98197.13
2022-11-27T01:58:01.080Z,98206.69
2022-11-27T02:01:02.696Z,98198.16
2022-11-27T02:04:04.373Z,98193.78
2022-11-27T02:07:06.122Z,98202.69
2022-11-27T02:10:08.155Z,98200.44
2022-11-27T02:13:21.330Z,98203.25
2022-11-27T02:16:41.461Z,98204.91
2022-11-27T02:20:08.262Z,98185.03
2022-11-27T02:23:57.880Z,98194.72
2022-11-27T02:27:11.846Z,98194.47
2022-11-27T02:30:13.885Z,98190.72
2022-11-27T02:33:18.410Z,98189.31
2022-11-27T02:36:25.323Z,98196.56
2022-11-27T02:39:54.637Z,98193.38
2022-11-27T02:43:07.166Z,98202.78
2022-11-27T02:46:10.431Z,98203.53
2022-11-27T02:49:16.864Z,98194.66
2022-11-27T02:52:20.079Z,98191.97
2022-11-27T02:55:26.244Z,98185.38
2022-11-27T02:58:30.155Z,98181.84
2022-11-27T03:01:38.836Z,98190.84
2022-11-27T03:04:48.740Z,98183.66
2022-11-27T03:07:56.484Z,98171.59
2022-11-27T03:11:03.670Z,98174.00
2022-11-27T03:14:10.519Z,98166.69
2022-11-27T03:17:51.555Z,98156.19
2022-11-27T03:21:05.519Z,98150.78
2022-11-27T03:24:08.748Z,98157.13
2022-11-27T03:27:14.034Z,98145.22
2022-11-27T03:30:15.770Z,98147.94
2022-11-27T03:33:18.379Z,98148.03
2022-11-27T03:36:21.392Z,98139.06
2022-11-27T03:39:24.499Z,98133.38
2022-11-27T03:42:43.730Z,98129.22
2022-11-27T03:46:08.845Z,98117.69
2022-11-27T03:49:24.628Z,98111.97
2022-11-27T03:52:34.969Z,98109.19
2022-11-27T03:55:36.496Z,98108.16
2022-11-27T03:58:49.484Z,98104.53
2022-11-27T04:01:51.119Z,98106.47
2022-11-27T04:04:52.611Z,98097.56
2022-11-27T04:07:54.192Z,98107.41
2022-11-27T04:10:55.839Z,98096.78
2022-11-27T04:13:57.394Z,98091.13
2022-11-27T04:16:58.854Z,98098.94
2022-11-27T04:20:00.454Z,98098.81
2022-11-27T04:23:02.025Z,98107.19
2022-11-27T04:26:03.679Z,98107.00
2022-11-27T04:29:05.263Z,98115.28
2022-11-27T04:32:06.860Z,98121.13
2022-11-27T04:35:09.235Z,98125.09
2022-11-27T04:38:10.804Z,98123.41
2022-11-27T04:41:12.246Z,98118.22
2022-11-27T04:44:13.884Z,98116.44
2022-11-27T04:47:15.614Z,98113.19
2022-11-27T04:50:17.218Z,98116.56
2022-11-27T04:53:18.756Z,98110.56
2022-11-27T04:56:20.289Z,98124.25
2022-11-27T04:59:22.423Z,98121.75
2022-11-27T05:02:24.019Z,98116.56
2022-11-27T05:05:25.574Z,98103.31
2022-11-27T05:08:30.157Z,98094.84
2022-11-27T05:11:32.269Z,98088.63
2022-11-27T05:14:33.766Z,98088.22
2022-11-27T05:17:35.372Z,98089.78
2022-11-27T05:20:36.880Z,98084.38
2022-11-27T05:23:38.621Z,98078.16
2022-11-27T05:26:41.387Z,98081.59
2022-11-27T05:29:43.714Z,98085.03
2022-11-27T05:32:45.308Z,98080.56
2022-11-27T05:35:46.928Z,98082.41
2022-11-27T05:38:48.488Z,98084.38
2022-11-27T05:41:50.014Z,98086.72
2022-11-27T05:44:56.681Z,98088.59
2022-11-27T05:47:59.639Z,98089.19
2022-11-27T05:51:02.072Z,98096.91
2022-11-27T05:54:03.648Z,98094.84
2022-11-27T05:57:05.261Z,98100.72
2022-11-27T06:00:07.880Z,98092.16
2022-11-27T06:03:10.550Z,98096.53
2022-11-27T06:06:15.299Z,98083.41
2022-11-27T06:09:16.914Z,98075.78
2022-11-27T06:12:18.524Z,98076.19
2022-11-27T06:15:20.041Z,98067.47
2022-11-27T06:18:21.620Z,98059.72
2022-11-27T06:21:24.128Z,98047.53
2022-11-27T06:24:25.807Z,98035.88
2022-11-27T06:27:32.952Z,98024.50
2022-11-27T06:30:34.507Z,98014.09
2022-11-27T06:33:36.109Z,98008.03
2022-11-27T06:36:40.726Z,98013.97
2022-11-27T06:39:42.283Z,98000.84
2022-11-27T06:42:43.886Z,97997.19
2022-11-27T06:45:55.454Z,97997.72
2022-11-27T06:48:58.290Z,97995.13
2022-11-27T06:52:00.255Z,97993.03
2022-11-27T06:55:01.744Z,98002.84
2022-11-27T06:58:03.235Z,98005.97
2022-11-27T07:01:08.492Z,97995.66
2022-11-27T07:04:15.531Z,98004.81
2022-11-27T07:07:17.113Z,98015.88
2022-11-27T07:10:18.710Z,98013.47
2022-11-27T07:13:20.234Z,98039.97
2022-11-27T07:16:21.856Z,98041.63
2022-11-27T07:19:23.439Z,98037.75
2022-11-27T07:22:25.131Z,98036.31
2022-11-27T07:25:26.637Z,98041.00
2022-11-27T07:28:28.251Z,98033.19
2022-11-27T07:31:30.703Z,98034.97
2022-11-27T07:34:32.285Z,98032.69
2022-11-27T07:37:34.318Z,98032.28
2022-11-27T07:40:38.500Z,98034.16
2022-11-27T07:43:41.338Z,98021.00
2022-11-27T07:46:43.038Z,98020.66
2022-11-27T07:49:44.545Z,98029.53
2022-11-27T07:52:46.276Z,98020.97
2022-11-27T07:55:47.814Z,98025.63
2022-11-27T07:58:49.437Z,98018.59
2022-11-27T08:01:51.112Z,98018.19
2022-11-27T08:04:52.804Z,98013.13
2022-11-27T08:07:54.869Z,98005.06
2022-11-27T08:10:56.543Z,98003.03
2022-11-27T08:14:01.654Z,97994.97
2022-11-27T08:17:03.295Z,97992.19
2022-11-27T08:20:05.984Z,97993.19
2022-11-27T08:23:07.587Z,98000.22
2022-11-27T08:26:10.297Z,97998.66
2022-11-27T08:29:13.006Z,97989.47
2022-11-27T08:32:14.868Z,97994.31
2022-11-27T08:35:16.555Z,97986.34
2022-11-27T08:38:18.461Z,97979.38
2022-11-27T08:41:20.064Z,97978.06
2022-11-27T08:44:21.615Z,97979.28
2022-11-27T08:47:23.198Z,97960.03
2022-11-27T08:50:25.146Z,97945.81
2022-11-27T08:53:27.153Z,97930.13
2022-11-27T08:56:28.991Z,97930.72
2022-11-27T08:59:31.103Z,97932.47
2022-11-27T09:02:34.229Z,97928.84
2022-11-27T09:05:42.168Z,97918.53
2022-11-27T09:08:44.656Z,97921.06
2022-11-27T09:11:46.394Z,97918.41
2022-11-27T09:14:48.064Z,97902.50
2022-11-27T09:17:49.982Z,97924.94
2022-11-27T09:21:08.950Z,97925.81
2022-11-27T09:24:10.511Z,97934.44
2022-11-27T09:27:12.010Z,97936.31
2022-11-27T09:30:13.917Z,97941.28
2022-11-27T09:33:16.002Z,97936.44
2022-11-27T09:36:20.722Z,97941.97
2022-11-27T09:39:22.827Z,97933.97
2022-11-27T09:42:37.770Z,97932.84
2022-11-27T09:45:44.952Z,97919.22
2022-11-27T09:48:51.112Z,97919.41
2022-11-27T09:52:14.968Z,97930.00
2022-11-27T09:55:31.914Z,97940.41
2022-11-27T09:58:41.342Z,97937.69
2022-11-27T10:01:47.703Z,97933.56
2022-11-27T10:05:12.744Z,97924.88
2022-11-27T10:08:27.147Z,97928.22
2022-11-27T10:11:34.098Z,97930.34
2022-11-27T10:14:38.845Z,97936.56
2022-11-27T10:17:52.201Z,97923.28
2022-11-27T10:20:59.513Z,97902.31
2022-11-27T10:24:24.031Z,97902.28
2022-11-27T10:27:53.657Z,97902.28
2022-11-27T10:31:09.786Z,97900.41
2022-11-27T10:34:26.068Z,97873.72
2022-11-27T10:37:43.397Z,97860.00
2022-11-27T10:41:12.111Z,97857.53
2022-11-27T10:44:32.589Z,97861.94
2022-11-27T10:47:34.478Z,97848.91
2022-11-27T10:50:36.128Z,97849.31
2022-11-27T10:53:42.808Z,97867.88
2022-11-27T10:56:50.117Z,97864.72
2022-11-27T11:00:15.037Z,97852.41
2022-11-27T11:03:18.635Z,97848.41
2022-11-27T11:06:24.393Z,97827.28
2022-11-27T11:09:31.103Z,97822.19
2022-11-27T11:12:33.131Z,97816.97
2022-11-27T11:15:43.146Z,97798.78
2022-11-27T11:18:49.096Z,97805.75
2022-11-27T11:21:51.387Z,97824.97
2022-11-27T11:24:53.796Z,97804.72
2022-11-27T11:27:55.536Z,97801.97
2022-11-27T11:31:05.756Z,97795.19
2022-11-27T11:34:20.166Z,97803.56
2022-11-27T11:37:46.154Z,97794.69
2022-11-27T11:40:59.841Z,97780.72
2022-11-27T11:44:03.051Z,97790.13
2022-11-27T11:47:04.767Z,97797.03
2022-11-27T11:50:13.487Z,97778.53
2022-11-27T11:53:15.055Z,97785.16
2022-11-27T11:56:25.017Z,97769.16
2022-11-27T11:59:45.136Z,97760.63
2022-11-27T12:03:04.819Z,97753.22
2022-11-27T12:06:33.839Z,97748.91
2022-11-27T12:09:51.062Z,97740.72
2022-11-27T12:13:01.772Z,97743.72
2022-11-27T12:16:30.055Z,97725.59
2022-11-27T12:24:05.459Z,97718.06
2022-11-27T12:27:06.952Z,97718.56
2022-11-27T12:31:04.049Z,97708.00
2022-11-27T12:34:46.983Z,97703.03
2022-11-27T12:38:06.181Z,97700.09
2022-11-27T12:41:40.432Z,97700.91
2022-11-27T12:44:47.791Z,97690.72
2022-11-27T12:47:56.221Z,97678.78
2022-11-27T12:51:02.448Z,97670.41
2022-11-27T12:54:09.784Z,97665.66
2022-11-27T12:57:20.460Z,97661.38
2022-11-27T13:00:25.745Z,97657.75
2022-11-27T13:03:51.602Z,97653.78
2022-11-27T13:07:02.855Z,97643.53
2022-11-27T13:10:18.634Z,97645.16
2022-11-27T13:13:34.046Z,97636.78
2022-11-27T13:16:40.863Z,97635.47
2022-11-27T13:19:49.519Z,97621.13
2022-11-27T13:22:52.077Z,97607.94
2022-11-27T13:25:55.986Z,97617.84
2022-11-27T13:29:02.093Z,97607.59
2022-11-27T13:32:06.779Z,97598.53
2022-11-27T13:35:22.044Z,97603.47
2022-11-27T13:38:26.255Z,97604.94
2022-11-27T13:41:39.906Z,97600.69
2022-11-27T13:44:52.676Z,97597.19
2022-11-27T13:47:56.032Z,97588.75
2022-11-27T13:50:58.923Z,97580.19
2022-11-27T13:54:11.003Z,97571.25
2022-11-27T13:57:17.817Z,97569.63
2022-11-27T14:00:32.633Z,97559.72
2022-11-27T14:03:36.546Z,97559.22
2022-11-27T14:06:38.778Z,97552.59
2022-11-27T14:09:44.610Z,97535.78
2022-11-27T14:13:00.995Z,97533.66
2022-11-27T14:16:09.258Z,97527.88
2022-11-27T14:19:42.002Z,97518.47
2022-11-27T14:23:07.083Z,97522.41
2022-11-27T14:26:21.729Z,97517.97
2022-11-27T14:29:24.850Z,97517.47
2022-11-27T14:32:36.096Z,97524.69
2022-11-27T14:35:37.774Z,97515.28
2022-11-27T14:38:39.328Z,97516.41
2022-11-27T14:41:40.793Z,97511.22
2022-11-27T14:44:42.334Z,97515.16
2022-11-27T14:47:50.322Z,97524.22
2022-11-27T14:50:54.575Z,97522.03
2022-11-27T14:54:03.081Z,97521.53
2022-11-27T14:57:05.661Z,97510.44
2022-11-27T15:00:24.288Z,97506.13
2022-11-27T15:03:26.815Z,97503.50
2022-11-27T15:06:36.318Z,97504.63
2022-11-27T15:09:42.428Z,97490.41
2022-11-27T15:12:48.451Z,97492.34
2022-11-27T15:16:07.005Z,97490.13
2022-11-27T15:19:20.267Z,97497.97
2022-11-27T15:22:22.604Z,97498.59
2022-11-27T15:25:39.633Z,97497.03
2022-11-27T15:28:47.353Z,97490.44
2022-11-27T15:31:52.347Z,97484.41
2022-11-27T15:34:54.350Z,97473.38
2022-11-27T15:37:58.845Z,97482.03
2022-11-27T15:41:01.741Z,97479.88
2022-11-27T15:44:03.400Z,97480.31
2022-11-27T15:47:06.664Z,97472.91
2022-11-27T15:50:15.526Z,97470.41
2022-11-27T15:53:17.325Z,97461.63
2022-11-27T15:56:19.343Z,97453.50
2022-11-27T15:59:20.997Z,97451.00
2022-11-27T16:02:23.441Z,97457.56
2022-11-27T16:05:24.956Z,97441.56
2022-11-27T16:08:26.552Z,97445.94
2022-11-27T16:11:30.180Z,97445.53
2022-11-27T16:14:31.709Z,97439.22
2022-11-27T16:17:33.289Z,97441.19
2022-11-27T16:20:34.843Z,97442.00
2022-11-27T16:23:37.633Z,97436.75
2022-11-27T16:26:39.588Z,97442.75
2022-11-27T16:29:42.753Z,97428.47
2022-11-27T16:32:44.361Z,97430.53
2022-11-27T16:35:45.910Z,97425.25
2022-11-27T16:38:48.163Z,97413.41
2022-11-27T16:41:49.751Z,97415.31
2022-11-27T16:44:52.976Z,97416.47
2022-11-27T16:47:55.211Z,97403.47
2022-11-27T16:51:05.663Z,97387.63
2022-11-27T16:54:11.161Z,97397.63
2022-11-27T16:57:15.198Z,97387.25
2022-11-27T17:00:55.366Z,97385.59
2022-11-27T17:04:02.110Z,97380.56
2022-11-27T17:07:03.959Z,97366.91
2022-11-27T17:10:06.043Z,97367.44
2022-11-27T17:13:07.572Z,97363.66
2022-11-27T17:16:10.488Z,97354.13
2022-11-27T17:19:14.305Z,97349.84
2022-11-27T17:22:16.132Z,97329.72
2022-11-27T17:25:17.811Z,97328.09
2022-11-27T17:28:19.338Z,97331.91
2022-11-27T17:31:24.381Z,97324.19
2022-11-27T17:34:27.360Z,97317.59
2022-11-27T17:37:30.305Z,97311.28
2022-11-27T17:40:41.686Z,97307.97
2022-11-27T17:43:43.826Z,97299.38
2022-11-27T17:46:50.030Z,97302.72
2022-11-27T17:49:53.312Z,97291.69
2022-11-27T17:52:54.891Z,97284.91
2022-11-27T17:56:02.525Z,97280.28
2022-11-27T17:59:04.642Z,97271.09
2022-11-27T18:02:07.137Z,97277.34
2022-11-27T18:05:12.637Z,97269.28
2022-11-27T18:08:14.699Z,97271.78
2022-11-27T18:11:25.504Z,97268.84
2022-11-27T18:14:28.197Z,97251.00
2022-11-27T18:17:30.835Z,97249.19
2022-11-27T18:20:32.331Z,97245.38
2022-11-27T18:23:34.393Z,97249.13
2022-11-27T18:29:57.485Z,97231.19
2022-11-27T18:32:59.040Z,97229.56
2022-11-27T18:36:01.327Z,97226.59
2022-11-27T18:39:04.962Z,97220.38
2022-11-27T18:42:19.872Z,97216.94
2022-11-27T18:45:34.536Z,97222.72
2022-11-27T18:48:58.094Z,97213.69
2022-11-27T18:52:04.237Z,97211.72
2022-11-27T18:55:06.215Z,97204.81
2022-11-27T18:58:08.142Z,97194.00
2022-11-27T19:01:13.038Z,97195.66
2022-11-27T19:04:15.659Z,97184.50
2022-11-27T19:07:17.766Z,97174.91
2022-11-27T19:10:24.536Z,97166.50
2022-11-27T19:13:30.068Z,97167.53
2022-11-27T19:16:39.370Z,97171.28
2022-11-27T19:19:56.440Z,97172.31
2022-11-27T19:22:59.077Z,97164.91
2022-11-27T19:26:08.758Z,97171.25
2022-11-27T19:29:10.476Z,97181.13
2022-11-27T19:32:12.711Z,97178.34
2022-11-27T19:35:14.399Z,97180.69
2022-11-27T19:38:16.043Z,97177.22
2022-11-27T19:41:18.322Z,97188.09
2022-11-27T19:44:20.131Z,97174.28
2022-11-27T19:47:22.773Z,97180.72
2022-11-27T19:50:24.327Z,97182.69
2022-11-27T19:53:26.603Z,97182.69
2022-11-27T19:56:32.288Z,97181.53
2022-11-27T19:59:34.121Z,97160.66
2022-11-27T20:02:36.531Z,97163.94
2022-11-27T20:05:38.483Z,97164.75
2022-11-27T20:08:40.787Z,97163.03
2022-11-27T20:11:42.719Z,97163.69
2022-11-27T20:14:44.479Z,97151.56
2022-11-27T20:17:48.977Z,97140.81
2022-11-27T20:20:50.720Z,97147.44
2022-11-27T20:23:53.897Z,97137.09
2022-11-27T20:26:56.715Z,97125.03
2022-11-27T20:30:00.053Z,97129.41
2022-11-27T20:33:06.110Z,97134.00
2022-11-27T20:36:17.138Z,97114.56
2022-11-27T20:39:21.517Z,97109.28
2022-11-27T20:42:24.482Z,97121.06
2022-11-27T20:45:27.509Z,97127.56
2022-11-27T20:48:29.188Z,97125.66
2022-11-27T20:51:33.743Z,97121.06
2022-11-27T20:54:42.023Z,97119.66
2022-11-27T20:57:43.548Z,97116.53
2022-11-27T21:00:45.257Z,97113.34
2022-11-27T21:03:48.786Z,97119.25
2022-11-27T21:06:51.406Z,97122.69
2022-11-27T21:09:54.425Z,97113.47
2022-11-27T21:12:55.957Z,97111.53
2022-11-27T21:15:57.595Z,97110.41
2022-11-27T21:19:03.684Z,97115.41
2022-11-27T21:22:05.326Z,97105.59
2022-11-27T21:25:07.515Z,97109.69
2022-11-27T21:28:09.884Z,97104.28
2022-11-27T21:31:34.520Z,97093.94
2022-11-27T21:34:40.351Z,97089.19
2022-11-27T21:37:43.185Z,97076.88
2022-11-27T21:40:45.539Z,97071.97
2022-11-27T21:43:48.922Z,97066.28
2022-11-27T21:46:52.294Z,97065.56
2022-11-27T21:49:54.354Z,97064.28
2022-11-27T21:52:56.301Z,97051.22
2022-11-27T21:55:58.732Z,97050.09
2022-11-27T21:59:00.691Z,97039.56
2022-11-27T22:02:03.485Z,97045.78
2022-11-27T22:05:05.534Z,97045.50
2022-11-27T22:08:07.400Z,97042.88
2022-11-27T22:11:11.679Z,97047.81
2022-11-27T22:14:15.605Z,97040.75
2022-11-27T22:17:19.086Z,97036.16
2022-11-27T22:20:20.861Z,97021.72
2022-11-27T22:23:22.322Z,97030.56
2022-11-27T22:26:25.321Z,97020.38
2022-11-27T22:29:26.815Z,97025.16
2022-11-27T22:32:28.338Z,97015.81
2022-11-27T22:35:30.095Z,97020.22
2022-11-27T22:38:31.663Z,97011.38
2022-11-27T22:41:36.576Z,97015.81
2022-11-27T22:44:38.702Z,97011.38
2022-11-27T22:47:40.932Z,97020.06
2022-11-27T22:50:42.445Z,97024.34
2022-11-27T22:53:44.469Z,97016.09
2022-11-27T22:56:46.816Z,97011.16
2022-11-27T22:59:48.931Z,97017.41
2022-11-27T23:02:50.521Z,97011.78
2022-11-27T23:05:52.306Z,97017.69
2022-11-27T23:08:54.389Z,97014.09
2022-11-27T23:11:56.959Z,97018.53
2022-11-27T23:14:58.483Z,97016.25
2022-11-27T23:18:00.077Z,97017.91
2022-11-27T23:21:09.423Z,97009.22
2022-11-27T23:24:15.187Z,97010.19
2022-11-27T23:27:16.814Z,97011.47
2022-11-27T23:30:18.556Z,97012.06
2022-11-27T23:33:20.059Z,97011.63
2022-11-27T23:36:22.251Z,97017.69
2022-11-27T23:39:23.764Z,97012.06
2022-11-27T23:42:25.226Z,97014.69
2022-11-27T23:45:26.792Z,97012.41
2022-11-27T23:48:28.312Z,97008.94
2022-11-27T23:51:32.254Z,97006.50
2022-11-27T23:54:33.810Z,97010.06
2022-11-27T23:57:35.459Z,97009.25
